sensor_id;sensor_type;location;lat;lon;timestamp;P1;durP1;ratioP1;P2;durP2;ratioP2
4585;SDS011;2305;50.118;8.952;2024-02-26T00:00:36;4.13;;;1.50;;
4585;SDS011;2305;50.118;8.952;2024-02-26T00:03:05;5.43;;;1.57;;
4585;SDS011;2305;50.118;8.952;2024-02-26T00:05:33;1.20;;;0.80;;
4585;SDS011;2305;50.118;8.952;2024-02-26T00:08:02;1.47;;;1.00;;
4585;SDS011;2305;50.118;8.952;2024-02-26T00:10:31;3.27;;;1.20;;
4585;SDS011;2305;50.118;8.952;2024-02-26T00:12:59;2.37;;;1.30;;
4585;SDS011;2305;50.118;8.952;2024-02-26T00:15:29;1.20;;;1.07;;
4585;SDS011;2305;50.118;8.952;2024-02-26T00:17:57;1.37;;;1.03;;
4585;SDS011;2305;50.118;8.952;2024-02-26T00:20:25;2.13;;;1.27;;
4585;SDS011;2305;50.118;8.952;2024-02-26T00:22:54;2.50;;;1.30;;
4585;SDS011;2305;50.118;8.952;2024-02-26T00:25:21;1.10;;;1.00;;
4585;SDS011;2305;50.118;8.952;2024-02-26T00:27:49;2.37;;;1.60;;
4585;SDS011;2305;50.118;8.952;2024-02-26T00:30:20;3.00;;;1.57;;
4585;SDS011;2305;50.118;8.952;2024-02-26T00:32:50;2.27;;;1.30;;
4585;SDS011;2305;50.118;8.952;2024-02-26T00:35:18;1.70;;;1.27;;
4585;SDS011;2305;50.118;8.952;2024-02-26T00:37:47;1.80;;;1.20;;
4585;SDS011;2305;50.118;8.952;2024-02-26T00:40:14;2.03;;;1.33;;
4585;SDS011;2305;50.118;8.952;2024-02-26T00:42:43;2.13;;;1.50;;
4585;SDS011;2305;50.118;8.952;2024-02-26T00:45:13;1.40;;;1.13;;
4585;SDS011;2305;50.118;8.952;2024-02-26T00:47:43;1.73;;;1.00;;
4585;SDS011;2305;50.118;8.952;2024-02-26T00:50:15;3.67;;;1.40;;
4585;SDS011;2305;50.118;8.952;2024-02-26T00:52:43;3.30;;;1.40;;
4585;SDS011;2305;50.118;8.952;2024-02-26T00:55:13;1.70;;;1.30;;
4585;SDS011;2305;50.118;8.952;2024-02-26T00:57:41;1.87;;;1.40;;
4585;SDS011;2305;50.118;8.952;2024-02-26T01:00:10;1.97;;;1.20;;
4585;SDS011;2305;50.118;8.952;2024-02-26T01:02:38;1.87;;;1.43;;
4585;SDS011;2305;50.118;8.952;2024-02-26T01:05:08;5.70;;;1.40;;
4585;SDS011;2305;50.118;8.952;2024-02-26T01:07:38;1.83;;;1.23;;
4585;SDS011;2305;50.118;8.952;2024-02-26T01:10:09;1.77;;;1.23;;
4585;SDS011;2305;50.118;8.952;2024-02-26T01:12:37;1.87;;;1.30;;
4585;SDS011;2305;50.118;8.952;2024-02-26T01:15:06;2.60;;;1.50;;
4585;SDS011;2305;50.118;8.952;2024-02-26T01:17:36;4.93;;;1.20;;
4585;SDS011;2305;50.118;8.952;2024-02-26T01:20:06;2.43;;;1.50;;
4585;SDS011;2305;50.118;8.952;2024-02-26T01:22:35;3.97;;;1.40;;
4585;SDS011;2305;50.118;8.952;2024-02-26T01:25:05;2.53;;;1.37;;
4585;SDS011;2305;50.118;8.952;2024-02-26T01:27:34;3.97;;;1.30;;
4585;SDS011;2305;50.118;8.952;2024-02-26T01:30:01;2.47;;;1.03;;
4585;SDS011;2305;50.118;8.952;2024-02-26T01:32:30;2.00;;;1.40;;
4585;SDS011;2305;50.118;8.952;2024-02-26T01:34:58;6.90;;;1.77;;
4585;SDS011;2305;50.118;8.952;2024-02-26T01:37:31;2.40;;;1.60;;
4585;SDS011;2305;50.118;8.952;2024-02-26T01:39:59;2.93;;;1.93;;
4585;SDS011;2305;50.118;8.952;2024-02-26T01:42:31;1.67;;;1.37;;
4585;SDS011;2305;50.118;8.952;2024-02-26T01:45:00;4.93;;;1.50;;
4585;SDS011;2305;50.118;8.952;2024-02-26T01:47:28;2.43;;;1.60;;
4585;SDS011;2305;50.118;8.952;2024-02-26T01:49:56;1.80;;;1.53;;
4585;SDS011;2305;50.118;8.952;2024-02-26T01:52:25;2.13;;;1.40;;
4585;SDS011;2305;50.118;8.952;2024-02-26T01:54:53;2.40;;;1.40;;
4585;SDS011;2305;50.118;8.952;2024-02-26T01:57:22;2.03;;;1.20;;
4585;SDS011;2305;50.118;8.952;2024-02-26T01:59:51;1.63;;;1.43;;
4585;SDS011;2305;50.118;8.952;2024-02-26T02:02:19;2.70;;;1.70;;
4585;SDS011;2305;50.118;8.952;2024-02-26T02:04:49;3.03;;;1.87;;
4585;SDS011;2305;50.118;8.952;2024-02-26T02:07:17;2.70;;;1.40;;
4585;SDS011;2305;50.118;8.952;2024-02-26T02:09:48;2.13;;;1.30;;
4585;SDS011;2305;50.118;8.952;2024-02-26T02:12:16;2.83;;;1.47;;
4585;SDS011;2305;50.118;8.952;2024-02-26T02:14:45;1.27;;;1.10;;
4585;SDS011;2305;50.118;8.952;2024-02-26T02:17:14;3.10;;;2.00;;
4585;SDS011;2305;50.118;8.952;2024-02-26T02:19:42;2.73;;;1.60;;
4585;SDS011;2305;50.118;8.952;2024-02-26T02:22:12;3.60;;;1.73;;
4585;SDS011;2305;50.118;8.952;2024-02-26T02:24:40;2.10;;;1.47;;
4585;SDS011;2305;50.118;8.952;2024-02-26T02:27:08;2.40;;;1.87;;
4585;SDS011;2305;50.118;8.952;2024-02-26T02:29:36;2.27;;;1.83;;
4585;SDS011;2305;50.118;8.952;2024-02-26T02:32:05;2.07;;;1.40;;
4585;SDS011;2305;50.118;8.952;2024-02-26T02:34:33;3.20;;;2.00;;
4585;SDS011;2305;50.118;8.952;2024-02-26T02:37:02;2.03;;;1.60;;
4585;SDS011;2305;50.118;8.952;2024-02-26T02:39:31;2.00;;;1.80;;
4585;SDS011;2305;50.118;8.952;2024-02-26T02:41:59;2.20;;;1.63;;
4585;SDS011;2305;50.118;8.952;2024-02-26T02:44:30;2.60;;;1.53;;
4585;SDS011;2305;50.118;8.952;2024-02-26T02:46:58;3.10;;;1.80;;
4585;SDS011;2305;50.118;8.952;2024-02-26T02:49:26;1.60;;;1.40;;
4585;SDS011;2305;50.118;8.952;2024-02-26T02:51:55;2.50;;;1.60;;
4585;SDS011;2305;50.118;8.952;2024-02-26T02:54:24;2.20;;;1.40;;
4585;SDS011;2305;50.118;8.952;2024-02-26T02:56:53;3.50;;;1.97;;
4585;SDS011;2305;50.118;8.952;2024-02-26T02:59:21;6.70;;;1.53;;
4585;SDS011;2305;50.118;8.952;2024-02-26T03:01:49;13.73;;;1.63;;
4585;SDS011;2305;50.118;8.952;2024-02-26T03:04:17;2.30;;;1.63;;
4585;SDS011;2305;50.118;8.952;2024-02-26T03:06:45;2.53;;;1.67;;
4585;SDS011;2305;50.118;8.952;2024-02-26T03:09:14;3.13;;;1.60;;
4585;SDS011;2305;50.118;8.952;2024-02-26T03:11:43;4.00;;;1.77;;
4585;SDS011;2305;50.118;8.952;2024-02-26T03:14:13;4.07;;;1.67;;
4585;SDS011;2305;50.118;8.952;2024-02-26T03:16:42;2.73;;;1.80;;
4585;SDS011;2305;50.118;8.952;2024-02-26T03:19:14;2.47;;;1.50;;
4585;SDS011;2305;50.118;8.952;2024-02-26T03:21:45;3.60;;;1.60;;
4585;SDS011;2305;50.118;8.952;2024-02-26T03:24:14;2.60;;;1.60;;
4585;SDS011;2305;50.118;8.952;2024-02-26T03:26:41;2.80;;;1.67;;
4585;SDS011;2305;50.118;8.952;2024-02-26T03:29:10;7.00;;;2.43;;
4585;SDS011;2305;50.118;8.952;2024-02-26T03:31:39;2.77;;;1.53;;
4585;SDS011;2305;50.118;8.952;2024-02-26T03:34:07;4.10;;;1.77;;
4585;SDS011;2305;50.118;8.952;2024-02-26T03:36:36;2.03;;;1.63;;
4585;SDS011;2305;50.118;8.952;2024-02-26T03:39:06;3.00;;;1.93;;
4585;SDS011;2305;50.118;8.952;2024-02-26T03:41:34;2.47;;;1.53;;
4585;SDS011;2305;50.118;8.952;2024-02-26T03:44:02;4.33;;;1.90;;
4585;SDS011;2305;50.118;8.952;2024-02-26T03:46:31;1.93;;;1.47;;
4585;SDS011;2305;50.118;8.952;2024-02-26T03:49:00;3.50;;;1.80;;
4585;SDS011;2305;50.118;8.952;2024-02-26T03:51:29;2.17;;;1.53;;
4585;SDS011;2305;50.118;8.952;2024-02-26T03:53:58;4.70;;;2.00;;
4585;SDS011;2305;50.118;8.952;2024-02-26T03:56:26;2.53;;;1.80;;
4585;SDS011;2305;50.118;8.952;2024-02-26T03:58:54;3.00;;;1.90;;
4585;SDS011;2305;50.118;8.952;2024-02-26T04:01:22;2.63;;;1.73;;
4585;SDS011;2305;50.118;8.952;2024-02-26T04:03:52;4.17;;;1.90;;
4585;SDS011;2305;50.118;8.952;2024-02-26T04:06:22;13.90;;;2.13;;
4585;SDS011;2305;50.118;8.952;2024-02-26T04:08:52;2.00;;;1.60;;
4585;SDS011;2305;50.118;8.952;2024-02-26T04:11:20;2.13;;;1.60;;
4585;SDS011;2305;50.118;8.952;2024-02-26T04:13:49;3.37;;;2.00;;
4585;SDS011;2305;50.118;8.952;2024-02-26T04:16:19;2.50;;;1.70;;
4585;SDS011;2305;50.118;8.952;2024-02-26T04:18:47;2.50;;;1.80;;
4585;SDS011;2305;50.118;8.952;2024-02-26T04:21:15;2.47;;;1.80;;
4585;SDS011;2305;50.118;8.952;2024-02-26T04:23:44;2.30;;;1.60;;
4585;SDS011;2305;50.118;8.952;2024-02-26T04:26:12;2.80;;;1.97;;
4585;SDS011;2305;50.118;8.952;2024-02-26T04:28:41;3.33;;;1.80;;
4585;SDS011;2305;50.118;8.952;2024-02-26T04:31:09;2.30;;;1.47;;
4585;SDS011;2305;50.118;8.952;2024-02-26T04:33:37;1.97;;;1.30;;
4585;SDS011;2305;50.118;8.952;2024-02-26T04:36:06;3.77;;;1.90;;
4585;SDS011;2305;50.118;8.952;2024-02-26T04:38:40;2.20;;;1.70;;
4585;SDS011;2305;50.118;8.952;2024-02-26T04:41:10;2.97;;;1.70;;
4585;SDS011;2305;50.118;8.952;2024-02-26T04:43:40;2.60;;;1.80;;
4585;SDS011;2305;50.118;8.952;2024-02-26T04:46:09;3.33;;;1.90;;
4585;SDS011;2305;50.118;8.952;2024-02-26T04:48:37;3.63;;;2.03;;
4585;SDS011;2305;50.118;8.952;2024-02-26T04:51:08;2.50;;;1.70;;
4585;SDS011;2305;50.118;8.952;2024-02-26T04:53:37;2.20;;;1.67;;
4585;SDS011;2305;50.118;8.952;2024-02-26T04:56:05;3.77;;;1.70;;
4585;SDS011;2305;50.118;8.952;2024-02-26T04:58:36;3.33;;;1.90;;
4585;SDS011;2305;50.118;8.952;2024-02-26T05:01:07;2.37;;;1.77;;
4585;SDS011;2305;50.118;8.952;2024-02-26T05:03:38;6.60;;;1.80;;
4585;SDS011;2305;50.118;8.952;2024-02-26T05:06:07;2.70;;;1.60;;
4585;SDS011;2305;50.118;8.952;2024-02-26T05:08:35;5.70;;;2.07;;
4585;SDS011;2305;50.118;8.952;2024-02-26T05:11:05;2.37;;;1.70;;
4585;SDS011;2305;50.118;8.952;2024-02-26T05:13:33;3.90;;;1.90;;
4585;SDS011;2305;50.118;8.952;2024-02-26T05:16:02;5.23;;;1.90;;
4585;SDS011;2305;50.118;8.952;2024-02-26T05:18:30;1.90;;;1.60;;
4585;SDS011;2305;50.118;8.952;2024-02-26T05:21:01;2.53;;;1.87;;
4585;SDS011;2305;50.118;8.952;2024-02-26T05:23:30;1.90;;;1.57;;
4585;SDS011;2305;50.118;8.952;2024-02-26T05:25:58;2.30;;;1.60;;
4585;SDS011;2305;50.118;8.952;2024-02-26T05:28:29;11.40;;;2.30;;
4585;SDS011;2305;50.118;8.952;2024-02-26T05:30:57;2.87;;;1.67;;
4585;SDS011;2305;50.118;8.952;2024-02-26T05:33:27;4.37;;;2.00;;
4585;SDS011;2305;50.118;8.952;2024-02-26T05:35:55;3.73;;;1.77;;
4585;SDS011;2305;50.118;8.952;2024-02-26T05:38:23;2.47;;;1.73;;
4585;SDS011;2305;50.118;8.952;2024-02-26T05:40:51;2.67;;;1.97;;
4585;SDS011;2305;50.118;8.952;2024-02-26T05:43:19;3.10;;;1.87;;
4585;SDS011;2305;50.118;8.952;2024-02-26T05:45:47;5.00;;;2.67;;
4585;SDS011;2305;50.118;8.952;2024-02-26T05:48:15;2.37;;;1.90;;
4585;SDS011;2305;50.118;8.952;2024-02-26T05:50:44;5.97;;;2.10;;
4585;SDS011;2305;50.118;8.952;2024-02-26T05:53:12;1.80;;;1.50;;
4585;SDS011;2305;50.118;8.952;2024-02-26T05:55:41;2.33;;;1.70;;
4585;SDS011;2305;50.118;8.952;2024-02-26T05:58:08;3.00;;;2.03;;
4585;SDS011;2305;50.118;8.952;2024-02-26T06:00:36;3.47;;;2.07;;
4585;SDS011;2305;50.118;8.952;2024-02-26T06:03:05;4.47;;;1.80;;
4585;SDS011;2305;50.118;8.952;2024-02-26T06:05:33;2.63;;;2.20;;
4585;SDS011;2305;50.118;8.952;2024-02-26T06:08:07;3.33;;;2.00;;
4585;SDS011;2305;50.118;8.952;2024-02-26T06:10:37;6.23;;;1.93;;
4585;SDS011;2305;50.118;8.952;2024-02-26T06:13:06;2.23;;;1.77;;
4585;SDS011;2305;50.118;8.952;2024-02-26T06:15:34;3.30;;;1.63;;
4585;SDS011;2305;50.118;8.952;2024-02-26T06:18:02;3.20;;;2.40;;
4585;SDS011;2305;50.118;8.952;2024-02-26T06:20:30;2.90;;;2.10;;
4585;SDS011;2305;50.118;8.952;2024-02-26T06:22:58;4.50;;;2.30;;
4585;SDS011;2305;50.118;8.952;2024-02-26T06:25:27;3.70;;;2.13;;
4585;SDS011;2305;50.118;8.952;2024-02-26T06:27:57;2.40;;;1.70;;
4585;SDS011;2305;50.118;8.952;2024-02-26T06:30:26;2.60;;;1.70;;
4585;SDS011;2305;50.118;8.952;2024-02-26T06:32:54;3.47;;;2.07;;
4585;SDS011;2305;50.118;8.952;2024-02-26T06:35:22;4.47;;;2.20;;
4585;SDS011;2305;50.118;8.952;2024-02-26T06:37:50;2.20;;;1.80;;
4585;SDS011;2305;50.118;8.952;2024-02-26T06:40:19;3.60;;;2.47;;
4585;SDS011;2305;50.118;8.952;2024-02-26T06:42:48;2.90;;;1.93;;
4585;SDS011;2305;50.118;8.952;2024-02-26T06:45:17;3.77;;;2.40;;
4585;SDS011;2305;50.118;8.952;2024-02-26T06:47:45;2.80;;;2.13;;
4585;SDS011;2305;50.118;8.952;2024-02-26T06:50:14;4.00;;;2.50;;
4585;SDS011;2305;50.118;8.952;2024-02-26T06:52:43;4.63;;;2.30;;
4585;SDS011;2305;50.118;8.952;2024-02-26T06:55:12;5.53;;;2.10;;
4585;SDS011;2305;50.118;8.952;2024-02-26T06:57:40;1.97;;;1.77;;
4585;SDS011;2305;50.118;8.952;2024-02-26T07:00:10;3.00;;;2.13;;
4585;SDS011;2305;50.118;8.952;2024-02-26T07:02:44;5.20;;;2.20;;
4585;SDS011;2305;50.118;8.952;2024-02-26T07:05:12;4.60;;;2.20;;
4585;SDS011;2305;50.118;8.952;2024-02-26T07:07:42;6.63;;;2.50;;
4585;SDS011;2305;50.118;8.952;2024-02-26T07:10:10;2.77;;;2.10;;
4585;SDS011;2305;50.118;8.952;2024-02-26T07:12:38;3.10;;;2.17;;
4585;SDS011;2305;50.118;8.952;2024-02-26T07:15:10;4.03;;;2.03;;
4585;SDS011;2305;50.118;8.952;2024-02-26T07:17:39;15.10;;;2.63;;
4585;SDS011;2305;50.118;8.952;2024-02-26T07:20:08;4.53;;;2.20;;
4585;SDS011;2305;50.118;8.952;2024-02-26T07:22:38;4.27;;;2.47;;
4585;SDS011;2305;50.118;8.952;2024-02-26T07:25:09;3.43;;;2.37;;
4585;SDS011;2305;50.118;8.952;2024-02-26T07:27:40;4.63;;;2.20;;
4585;SDS011;2305;50.118;8.952;2024-02-26T07:30:08;3.50;;;2.53;;
4585;SDS011;2305;50.118;8.952;2024-02-26T07:32:38;3.80;;;2.80;;
4585;SDS011;2305;50.118;8.952;2024-02-26T07:35:09;6.10;;;2.60;;
4585;SDS011;2305;50.118;8.952;2024-02-26T07:37:37;4.20;;;2.73;;
4585;SDS011;2305;50.118;8.952;2024-02-26T07:40:05;4.40;;;2.90;;
4585;SDS011;2305;50.118;8.952;2024-02-26T07:42:37;4.83;;;2.43;;
4585;SDS011;2305;50.118;8.952;2024-02-26T07:45:06;4.67;;;2.43;;
4585;SDS011;2305;50.118;8.952;2024-02-26T07:47:36;5.23;;;2.87;;
4585;SDS011;2305;50.118;8.952;2024-02-26T07:50:07;8.30;;;3.17;;
4585;SDS011;2305;50.118;8.952;2024-02-26T07:52:36;4.93;;;3.00;;
4585;SDS011;2305;50.118;8.952;2024-02-26T07:55:04;3.63;;;2.40;;
4585;SDS011;2305;50.118;8.952;2024-02-26T07:57:33;5.77;;;2.93;;
4585;SDS011;2305;50.118;8.952;2024-02-26T08:00:01;4.77;;;2.43;;
4585;SDS011;2305;50.118;8.952;2024-02-26T08:02:33;5.50;;;3.30;;
4585;SDS011;2305;50.118;8.952;2024-02-26T08:05:03;4.90;;;3.17;;
4585;SDS011;2305;50.118;8.952;2024-02-26T08:07:33;6.57;;;3.67;;
4585;SDS011;2305;50.118;8.952;2024-02-26T08:10:00;4.30;;;3.00;;
4585;SDS011;2305;50.118;8.952;2024-02-26T08:12:28;4.20;;;2.87;;
4585;SDS011;2305;50.118;8.952;2024-02-26T08:14:58;10.90;;;2.97;;
4585;SDS011;2305;50.118;8.952;2024-02-26T08:17:27;4.43;;;2.80;;
4585;SDS011;2305;50.118;8.952;2024-02-26T08:19:55;5.23;;;2.40;;
4585;SDS011;2305;50.118;8.952;2024-02-26T08:22:25;6.47;;;2.80;;
4585;SDS011;2305;50.118;8.952;2024-02-26T08:24:55;2.93;;;2.40;;
4585;SDS011;2305;50.118;8.952;2024-02-26T08:27:25;6.00;;;3.40;;
4585;SDS011;2305;50.118;8.952;2024-02-26T08:29:53;4.20;;;2.97;;
4585;SDS011;2305;50.118;8.952;2024-02-26T08:32:21;5.57;;;2.97;;
4585;SDS011;2305;50.118;8.952;2024-02-26T08:34:49;7.50;;;3.10;;
4585;SDS011;2305;50.118;8.952;2024-02-26T08:37:18;4.23;;;2.97;;
4585;SDS011;2305;50.118;8.952;2024-02-26T08:39:49;8.63;;;3.20;;
4585;SDS011;2305;50.118;8.952;2024-02-26T08:42:17;4.87;;;2.83;;
4585;SDS011;2305;50.118;8.952;2024-02-26T08:44:45;4.77;;;2.77;;
4585;SDS011;2305;50.118;8.952;2024-02-26T08:47:14;4.43;;;2.83;;
4585;SDS011;2305;50.118;8.952;2024-02-26T08:49:42;6.00;;;2.93;;
4585;SDS011;2305;50.118;8.952;2024-02-26T08:52:12;4.90;;;3.27;;
4585;SDS011;2305;50.118;8.952;2024-02-26T08:54:41;5.50;;;3.03;;
4585;SDS011;2305;50.118;8.952;2024-02-26T08:57:11;7.53;;;4.03;;
4585;SDS011;2305;50.118;8.952;2024-02-26T08:59:39;4.50;;;2.77;;
4585;SDS011;2305;50.118;8.952;2024-02-26T09:02:07;8.73;;;3.57;;
4585;SDS011;2305;50.118;8.952;2024-02-26T09:04:35;4.73;;;3.00;;
4585;SDS011;2305;50.118;8.952;2024-02-26T09:07:06;6.03;;;3.13;;
4585;SDS011;2305;50.118;8.952;2024-02-26T09:09:35;8.00;;;2.67;;
4585;SDS011;2305;50.118;8.952;2024-02-26T09:12:03;6.37;;;3.30;;
4585;SDS011;2305;50.118;8.952;2024-02-26T09:14:34;5.47;;;3.40;;
4585;SDS011;2305;50.118;8.952;2024-02-26T09:17:02;5.70;;;3.23;;
4585;SDS011;2305;50.118;8.952;2024-02-26T09:19:30;4.43;;;3.20;;
4585;SDS011;2305;50.118;8.952;2024-02-26T09:21:58;4.63;;;3.17;;
4585;SDS011;2305;50.118;8.952;2024-02-26T09:24:29;8.07;;;3.60;;
4585;SDS011;2305;50.118;8.952;2024-02-26T09:26:57;4.70;;;3.40;;
4585;SDS011;2305;50.118;8.952;2024-02-26T09:29:25;6.47;;;3.70;;
4585;SDS011;2305;50.118;8.952;2024-02-26T09:31:56;7.50;;;3.40;;
4585;SDS011;2305;50.118;8.952;2024-02-26T09:34:24;5.33;;;3.40;;
4585;SDS011;2305;50.118;8.952;2024-02-26T09:36:52;7.50;;;4.03;;
4585;SDS011;2305;50.118;8.952;2024-02-26T09:39:30;8.40;;;3.60;;
4585;SDS011;2305;50.118;8.952;2024-02-26T09:41:59;6.77;;;3.53;;
4585;SDS011;2305;50.118;8.952;2024-02-26T09:44:31;6.73;;;3.27;;
4585;SDS011;2305;50.118;8.952;2024-02-26T09:47:06;7.20;;;3.60;;
4585;SDS011;2305;50.118;8.952;2024-02-26T09:49:36;5.07;;;3.30;;
4585;SDS011;2305;50.118;8.952;2024-02-26T09:52:06;6.90;;;3.70;;
4585;SDS011;2305;50.118;8.952;2024-02-26T09:54:38;5.97;;;3.40;;
4585;SDS011;2305;50.118;8.952;2024-02-26T09:57:07;4.60;;;2.53;;
4585;SDS011;2305;50.118;8.952;2024-02-26T09:59:42;7.77;;;3.43;;
4585;SDS011;2305;50.118;8.952;2024-02-26T10:02:13;8.13;;;3.47;;
4585;SDS011;2305;50.118;8.952;2024-02-26T10:04:42;6.20;;;3.63;;
4585;SDS011;2305;50.118;8.952;2024-02-26T10:07:16;5.50;;;3.50;;
4585;SDS011;2305;50.118;8.952;2024-02-26T10:09:44;6.77;;;3.57;;
4585;SDS011;2305;50.118;8.952;2024-02-26T10:12:12;5.20;;;3.50;;
4585;SDS011;2305;50.118;8.952;2024-02-26T10:14:42;8.23;;;3.67;;
4585;SDS011;2305;50.118;8.952;2024-02-26T10:17:10;4.70;;;3.10;;
4585;SDS011;2305;50.118;8.952;2024-02-26T10:19:40;4.70;;;3.40;;
4585;SDS011;2305;50.118;8.952;2024-02-26T10:22:08;4.17;;;3.03;;
4585;SDS011;2305;50.118;8.952;2024-02-26T10:24:36;3.63;;;2.97;;
4585;SDS011;2305;50.118;8.952;2024-02-26T10:27:04;4.83;;;3.60;;
4585;SDS011;2305;50.118;8.952;2024-02-26T10:29:33;6.93;;;3.70;;
4585;SDS011;2305;50.118;8.952;2024-02-26T10:32:02;5.33;;;3.87;;
4585;SDS011;2305;50.118;8.952;2024-02-26T10:34:32;9.10;;;3.03;;
4585;SDS011;2305;50.118;8.952;2024-02-26T10:37:01;12.13;;;4.00;;
4585;SDS011;2305;50.118;8.952;2024-02-26T10:39:29;8.03;;;3.90;;
4585;SDS011;2305;50.118;8.952;2024-02-26T10:41:57;12.90;;;3.73;;
4585;SDS011;2305;50.118;8.952;2024-02-26T10:44:31;9.73;;;3.77;;
4585;SDS011;2305;50.118;8.952;2024-02-26T10:46:59;7.77;;;3.47;;
4585;SDS011;2305;50.118;8.952;2024-02-26T10:49:27;4.50;;;3.30;;
4585;SDS011;2305;50.118;8.952;2024-02-26T10:51:57;5.20;;;3.10;;
4585;SDS011;2305;50.118;8.952;2024-02-26T10:54:26;9.63;;;4.47;;
4585;SDS011;2305;50.118;8.952;2024-02-26T10:56:57;12.10;;;3.40;;
4585;SDS011;2305;50.118;8.952;2024-02-26T10:59:26;5.30;;;3.23;;
4585;SDS011;2305;50.118;8.952;2024-02-26T11:01:55;6.77;;;3.70;;
4585;SDS011;2305;50.118;8.952;2024-02-26T11:04:26;4.27;;;3.30;;
4585;SDS011;2305;50.118;8.952;2024-02-26T11:06:58;5.40;;;3.13;;
4585;SDS011;2305;50.118;8.952;2024-02-26T11:09:28;4.97;;;3.20;;
4585;SDS011;2305;50.118;8.952;2024-02-26T11:11:56;5.37;;;3.57;;
4585;SDS011;2305;50.118;8.952;2024-02-26T11:14:29;5.73;;;3.47;;
4585;SDS011;2305;50.118;8.952;2024-02-26T11:16:57;4.87;;;3.17;;
4585;SDS011;2305;50.118;8.952;2024-02-26T11:19:30;4.23;;;3.10;;
4585;SDS011;2305;50.118;8.952;2024-02-26T11:22:05;3.33;;;2.27;;
4585;SDS011;2305;50.118;8.952;2024-02-26T11:24:47;4.00;;;2.73;;
4585;SDS011;2305;50.118;8.952;2024-02-26T11:27:15;6.83;;;3.20;;
4585;SDS011;2305;50.118;8.952;2024-02-26T11:29:47;6.67;;;3.43;;
4585;SDS011;2305;50.118;8.952;2024-02-26T11:32:18;4.97;;;2.93;;
4585;SDS011;2305;50.118;8.952;2024-02-26T11:34:46;4.80;;;2.80;;
4585;SDS011;2305;50.118;8.952;2024-02-26T11:37:17;5.83;;;3.20;;
4585;SDS011;2305;50.118;8.952;2024-02-26T11:39:51;3.93;;;2.73;;
4585;SDS011;2305;50.118;8.952;2024-02-26T11:42:22;4.63;;;3.17;;
4585;SDS011;2305;50.118;8.952;2024-02-26T11:44:52;5.80;;;3.97;;
4585;SDS011;2305;50.118;8.952;2024-02-26T11:47:22;7.10;;;3.53;;
4585;SDS011;2305;50.118;8.952;2024-02-26T11:49:51;5.40;;;2.97;;
4585;SDS011;2305;50.118;8.952;2024-02-26T11:52:20;3.77;;;2.93;;
4585;SDS011;2305;50.118;8.952;2024-02-26T11:54:48;5.33;;;3.37;;
4585;SDS011;2305;50.118;8.952;2024-02-26T11:57:23;6.33;;;3.93;;
4585;SDS011;2305;50.118;8.952;2024-02-26T11:59:56;4.00;;;3.30;;
4585;SDS011;2305;50.118;8.952;2024-02-26T12:02:45;6.27;;;3.00;;
4585;SDS011;2305;50.118;8.952;2024-02-26T12:05:15;5.13;;;3.03;;
4585;SDS011;2305;50.118;8.952;2024-02-26T12:07:46;3.53;;;2.73;;
4585;SDS011;2305;50.118;8.952;2024-02-26T12:10:25;7.00;;;3.20;;
4585;SDS011;2305;50.118;8.952;2024-02-26T12:12:58;5.40;;;3.10;;
4585;SDS011;2305;50.118;8.952;2024-02-26T12:15:32;9.40;;;3.23;;
4585;SDS011;2305;50.118;8.952;2024-02-26T12:18:02;4.20;;;2.53;;
4585;SDS011;2305;50.118;8.952;2024-02-26T12:20:34;4.97;;;3.07;;
4585;SDS011;2305;50.118;8.952;2024-02-26T12:23:04;5.93;;;3.03;;
4585;SDS011;2305;50.118;8.952;2024-02-26T12:25:32;5.57;;;2.93;;
4585;SDS011;2305;50.118;8.952;2024-02-26T12:28:01;4.70;;;3.13;;
4585;SDS011;2305;50.118;8.952;2024-02-26T12:30:29;5.37;;;3.40;;
4585;SDS011;2305;50.118;8.952;2024-02-26T12:33:00;4.80;;;2.47;;
4585;SDS011;2305;50.118;8.952;2024-02-26T12:35:29;3.80;;;2.47;;
4585;SDS011;2305;50.118;8.952;2024-02-26T12:37:58;5.03;;;3.33;;
4585;SDS011;2305;50.118;8.952;2024-02-26T12:40:31;4.00;;;3.10;;
4585;SDS011;2305;50.118;8.952;2024-02-26T12:43:00;5.67;;;2.80;;
4585;SDS011;2305;50.118;8.952;2024-02-26T12:45:29;6.10;;;3.10;;
4585;SDS011;2305;50.118;8.952;2024-02-26T12:47:57;4.50;;;2.90;;
4585;SDS011;2305;50.118;8.952;2024-02-26T12:50:31;5.57;;;3.40;;
4585;SDS011;2305;50.118;8.952;2024-02-26T12:53:03;4.07;;;2.70;;
4585;SDS011;2305;50.118;8.952;2024-02-26T12:55:34;5.37;;;3.13;;
4585;SDS011;2305;50.118;8.952;2024-02-26T12:58:06;6.30;;;3.30;;
4585;SDS011;2305;50.118;8.952;2024-02-26T13:00:34;4.30;;;3.00;;
4585;SDS011;2305;50.118;8.952;2024-02-26T13:03:04;4.30;;;2.93;;
4585;SDS011;2305;50.118;8.952;2024-02-26T13:05:35;4.50;;;2.50;;
4585;SDS011;2305;50.118;8.952;2024-02-26T13:08:04;5.03;;;3.13;;
4585;SDS011;2305;50.118;8.952;2024-02-26T13:10:37;5.50;;;3.20;;
4585;SDS011;2305;50.118;8.952;2024-02-26T13:13:05;4.47;;;3.03;;
4585;SDS011;2305;50.118;8.952;2024-02-26T13:15:33;4.50;;;2.87;;
4585;SDS011;2305;50.118;8.952;2024-02-26T13:18:09;3.67;;;2.50;;
4585;SDS011;2305;50.118;8.952;2024-02-26T13:20:38;4.43;;;2.50;;
4585;SDS011;2305;50.118;8.952;2024-02-26T13:23:07;3.10;;;2.37;;
4585;SDS011;2305;50.118;8.952;2024-02-26T13:25:41;3.70;;;2.50;;
4585;SDS011;2305;50.118;8.952;2024-02-26T13:28:13;4.40;;;2.60;;
4585;SDS011;2305;50.118;8.952;2024-02-26T13:30:49;5.27;;;2.80;;
4585;SDS011;2305;50.118;8.952;2024-02-26T13:33:18;4.97;;;3.07;;
4585;SDS011;2305;50.118;8.952;2024-02-26T13:35:49;3.73;;;2.80;;
4585;SDS011;2305;50.118;8.952;2024-02-26T13:38:17;3.47;;;2.53;;
4585;SDS011;2305;50.118;8.952;2024-02-26T13:40:46;2.70;;;2.10;;
4585;SDS011;2305;50.118;8.952;2024-02-26T13:43:15;6.63;;;3.67;;
4585;SDS011;2305;50.118;8.952;2024-02-26T13:45:44;4.27;;;2.67;;
4585;SDS011;2305;50.118;8.952;2024-02-26T13:48:13;3.10;;;2.57;;
4585;SDS011;2305;50.118;8.952;2024-02-26T13:50:42;4.67;;;2.23;;
4585;SDS011;2305;50.118;8.952;2024-02-26T13:53:13;5.37;;;3.33;;
4585;SDS011;2305;50.118;8.952;2024-02-26T13:55:42;5.23;;;2.57;;
4585;SDS011;2305;50.118;8.952;2024-02-26T13:58:12;4.70;;;2.60;;
4585;SDS011;2305;50.118;8.952;2024-02-26T14:00:41;2.60;;;1.80;;
4585;SDS011;2305;50.118;8.952;2024-02-26T14:03:10;2.70;;;2.07;;
4585;SDS011;2305;50.118;8.952;2024-02-26T14:05:39;5.87;;;2.03;;
4585;SDS011;2305;50.118;8.952;2024-02-26T14:08:10;2.70;;;2.00;;
4585;SDS011;2305;50.118;8.952;2024-02-26T14:10:41;3.13;;;2.30;;
4585;SDS011;2305;50.118;8.952;2024-02-26T14:13:10;4.00;;;2.10;;
4585;SDS011;2305;50.118;8.952;2024-02-26T14:15:40;2.60;;;1.97;;
4585;SDS011;2305;50.118;8.952;2024-02-26T14:18:10;3.60;;;2.33;;
4585;SDS011;2305;50.118;8.952;2024-02-26T14:20:39;2.70;;;2.07;;
4585;SDS011;2305;50.118;8.952;2024-02-26T14:23:10;2.03;;;1.83;;
4585;SDS011;2305;50.118;8.952;2024-02-26T14:25:38;3.90;;;2.30;;
4585;SDS011;2305;50.118;8.952;2024-02-26T14:28:06;3.43;;;2.40;;
4585;SDS011;2305;50.118;8.952;2024-02-26T14:30:44;2.83;;;2.10;;
4585;SDS011;2305;50.118;8.952;2024-02-26T14:33:14;4.80;;;2.50;;
4585;SDS011;2305;50.118;8.952;2024-02-26T14:35:43;2.37;;;1.80;;
4585;SDS011;2305;50.118;8.952;2024-02-26T14:38:11;2.90;;;1.97;;
4585;SDS011;2305;50.118;8.952;2024-02-26T14:40:39;2.90;;;2.00;;
4585;SDS011;2305;50.118;8.952;2024-02-26T14:43:07;2.90;;;1.87;;
4585;SDS011;2305;50.118;8.952;2024-02-26T14:45:36;2.80;;;2.30;;
4585;SDS011;2305;50.118;8.952;2024-02-26T14:48:07;2.57;;;1.97;;
4585;SDS011;2305;50.118;8.952;2024-02-26T14:50:37;4.53;;;2.70;;
4585;SDS011;2305;50.118;8.952;2024-02-26T14:53:05;3.60;;;2.33;;
4585;SDS011;2305;50.118;8.952;2024-02-26T14:55:33;4.60;;;2.30;;
4585;SDS011;2305;50.118;8.952;2024-02-26T14:58:04;3.53;;;2.30;;
4585;SDS011;2305;50.118;8.952;2024-02-26T15:00:32;4.50;;;2.27;;
4585;SDS011;2305;50.118;8.952;2024-02-26T15:03:03;3.40;;;2.07;;
4585;SDS011;2305;50.118;8.952;2024-02-26T15:05:33;3.37;;;2.10;;
4585;SDS011;2305;50.118;8.952;2024-02-26T15:08:04;4.03;;;2.30;;
4585;SDS011;2305;50.118;8.952;2024-02-26T15:10:35;3.23;;;2.20;;
4585;SDS011;2305;50.118;8.952;2024-02-26T15:13:05;3.00;;;2.33;;
4585;SDS011;2305;50.118;8.952;2024-02-26T15:15:36;3.70;;;2.17;;
4585;SDS011;2305;50.118;8.952;2024-02-26T15:18:05;3.50;;;2.20;;
4585;SDS011;2305;50.118;8.952;2024-02-26T15:20:36;3.60;;;2.30;;
4585;SDS011;2305;50.118;8.952;2024-02-26T15:23:07;2.50;;;2.00;;
4585;SDS011;2305;50.118;8.952;2024-02-26T15:25:35;5.33;;;2.13;;
4585;SDS011;2305;50.118;8.952;2024-02-26T15:28:03;5.17;;;2.17;;